createdAt,value
2019-06-10T00:03:51.741Z,100665.95
2019-06-10T00:06:22.518Z,100672.01
2019-06-10T00:08:51.851Z,100667.23
2019-06-10T00:14:58.728Z,100662.45
2019-06-10T00:17:55.029Z,100657.87
2019-06-10T00:20:59.807Z,100653.70
2019-06-10T00:23:31.640Z,100652.85
2019-06-10T00:26:41.337Z,100664.17
2019-06-10T00:29:12.366Z,100657.17
2019-06-10T00:32:21.617Z,100652.27
2019-06-10T00:35:12.398Z,100661.12
2019-06-10T00:37:43.686Z,100662.21
2019-06-10T00:43:30.262Z,100658.34
2019-06-10T00:46:00.720Z,100659.95
2019-06-10T00:48:32.322Z,100659.72
2019-06-10T00:51:04.137Z,100662.81
2019-06-10T00:53:34.036Z,100656.33
2019-06-10T00:56:42.918Z,100662.25
2019-06-10T00:59:14.880Z,100665.06
2019-06-10T01:01:43.522Z,100657.77
2019-06-10T01:04:52.341Z,100657.37
2019-06-10T01:07:22.572Z,100664.73
2019-06-10T01:10:31.716Z,100668.92
2019-06-10T01:13:05.084Z,100666.27
2019-06-10T01:15:34.428Z,100656.30
2019-06-10T01:18:03.794Z,100654.48
2019-06-10T01:20:33.406Z,100655.09
2019-06-10T01:23:02.929Z,100654.32
2019-06-10T01:25:51.665Z,100660.44
2019-06-10T01:28:22.005Z,100657.37
2019-06-10T01:30:52.246Z,100656.30
2019-06-10T01:33:21.839Z,100654.36
2019-06-10T01:36:31.409Z,100648.70
2019-06-10T01:39:02.149Z,100656.09
2019-06-10T01:41:31.500Z,100655.00
2019-06-10T01:44:01.727Z,100653.56
2019-06-10T01:46:31.726Z,100659.72
2019-06-10T01:49:03.269Z,100661.80
2019-06-10T01:51:32.734Z,100667.92
2019-06-10T01:54:02.155Z,100659.95
2019-06-10T01:56:31.620Z,100656.70
2019-06-10T01:59:01.592Z,100654.24
2019-06-10T02:01:51.741Z,100655.00
2019-06-10T02:05:01.602Z,100645.23
2019-06-10T02:10:26.629Z,100654.92
2019-06-10T02:12:56.031Z,100651.97
2019-06-10T02:15:25.539Z,100652.29
2019-06-10T02:17:54.968Z,100645.89
2019-06-10T02:20:24.574Z,100640.29
2019-06-10T02:22:54.141Z,100642.28
2019-06-10T02:26:03.003Z,100639.27
2019-06-10T02:28:34.846Z,100647.60
2019-06-10T02:31:04.187Z,100637.69
2019-06-10T02:34:17.611Z,100635.47
2019-06-10T02:36:44.810Z,100634.24
2019-06-10T02:44:37.635Z,100637.04
2019-06-10T02:47:06.617Z,100632.92
2019-06-10T02:52:37.221Z,100638.05
2019-06-10T02:58:13.774Z,100642.63
2019-06-10T03:00:48.607Z,100640.81
2019-06-10T03:03:25.700Z,100646.23
2019-06-10T03:05:47.637Z,100648.77
2019-06-10T03:08:56.363Z,100648.76
2019-06-10T03:11:27.937Z,100645.50
2019-06-10T03:13:57.311Z,100646.28
2019-06-10T03:16:45.720Z,100642.76
2019-06-10T03:19:15.874Z,100650.48
2019-06-10T03:21:46.931Z,100651.03
2019-06-10T03:24:17.028Z,100659.20
2019-06-10T03:26:47.855Z,100658.31
2019-06-10T03:29:18.340Z,100658.97
2019-06-10T03:31:48.795Z,100664.21
2019-06-10T03:34:23.214Z,100667.86
2019-06-10T03:36:53.514Z,100667.36
2019-06-10T03:39:25.776Z,100666.47
2019-06-10T03:44:56.885Z,100663.50
2019-06-10T03:48:05.740Z,100664.13
2019-06-10T03:50:47.076Z,100662.84
2019-06-10T03:53:17.300Z,100659.45
2019-06-10T03:55:47.660Z,100665.62
2019-06-10T03:58:17.466Z,100660.81
2019-06-10T04:00:58.820Z,100660.05
2019-06-10T04:03:29.373Z,100655.42
2019-06-10T04:06:02.274Z,100660.65
2019-06-10T04:08:32.813Z,100656.98
2019-06-10T04:11:02.968Z,100660.66
2019-06-10T04:14:13.272Z,100656.88
2019-06-10T04:16:43.331Z,100665.22
2019-06-10T04:19:14.298Z,100656.77
2019-06-10T04:22:24.937Z,100656.56
2019-06-10T04:24:54.371Z,100672.63
2019-06-10T04:27:25.360Z,100673.86
2019-06-10T04:29:55.324Z,100678.50
2019-06-10T04:33:04.216Z,100676.53
2019-06-10T04:36:13.671Z,100671.59
2019-06-10T04:38:44.470Z,100674.68
2019-06-10T04:41:14.324Z,100679.60
2019-06-10T04:46:38.888Z,100669.98
2019-06-10T04:52:24.792Z,100676.30
2019-06-10T04:54:54.055Z,100670.05
2019-06-10T04:57:25.313Z,100667.94
2019-06-10T05:02:32.846Z,100676.27
2019-06-10T05:05:02.971Z,100676.16
2019-06-10T05:08:13.152Z,100670.48
2019-06-10T05:10:43.705Z,100677.97
2019-06-10T05:16:30.826Z,100666.37
2019-06-10T05:22:03.075Z,100662.98
2019-06-10T05:25:12.851Z,100663.32
2019-06-10T05:27:43.617Z,100667.06
2019-06-10T05:33:23.079Z,100665.69
2019-06-10T05:35:53.269Z,100660.98
2019-06-10T05:38:23.949Z,100664.47
2019-06-10T05:40:53.686Z,100658.55
2019-06-10T05:43:24.755Z,100660.72
2019-06-10T05:45:54.725Z,100663.59
2019-06-10T05:51:35.205Z,100663.30
2019-06-10T05:54:04.977Z,100658.14
2019-06-10T05:56:35.745Z,100671.21
2019-06-10T05:59:06.012Z,100672.55
2019-06-10T06:04:50.269Z,100673.12
2019-06-10T06:10:29.462Z,100688.21
2019-06-10T06:13:00.137Z,100673.09
2019-06-10T06:15:29.689Z,100678.98
2019-06-10T06:18:07.198Z,100684.34
2019-06-10T06:20:31.957Z,100682.16
2019-06-10T06:23:02.756Z,100684.81
2019-06-10T06:25:38.882Z,100677.64
2019-06-10T06:28:04.098Z,100686.49
2019-06-10T06:33:32.743Z,100689.83
2019-06-10T06:36:03.392Z,100694.16
2019-06-10T06:38:34.015Z,100690.02
2019-06-10T06:44:13.832Z,100686.52
2019-06-10T06:46:43.256Z,100685.72
2019-06-10T06:49:12.993Z,100691.77
2019-06-10T06:51:54.613Z,100697.16
2019-06-10T06:54:15.565Z,100674.01
2019-06-10T06:56:45.071Z,100686.44
2019-06-10T06:59:14.457Z,100686.71
2019-06-10T07:01:44.627Z,100683.27
2019-06-10T07:04:14.194Z,100686.53
2019-06-10T07:07:23.441Z,100684.75
2019-06-10T07:16:08.252Z,100674.91
2019-06-10T07:18:43.350Z,100689.33
2019-06-10T07:21:09.338Z,100671.49
2019-06-10T07:23:41.089Z,100674.25
2019-06-10T07:26:12.613Z,100678.98
2019-06-10T07:28:46.665Z,100676.13
2019-06-10T07:33:53.228Z,100674.06
2019-06-10T07:36:23.688Z,100666.84
2019-06-10T07:38:54.601Z,100671.98
2019-06-10T07:44:19.545Z,100673.44
2019-06-10T07:46:48.907Z,100678.27
2019-06-10T07:49:18.374Z,100675.80
2019-06-10T07:52:27.967Z,100675.86
2019-06-10T07:58:22.795Z,100690.66
2019-06-10T08:00:53.437Z,100687.56
2019-06-10T08:03:24.012Z,100684.12
2019-06-10T08:05:53.558Z,100675.66
2019-06-10T08:11:18.153Z,100677.83
2019-06-10T08:13:48.066Z,100685.34
2019-06-10T08:16:18.840Z,100677.84
2019-06-10T08:19:16.089Z,100687.89
2019-06-10T08:21:19.983Z,100682.70
2019-06-10T08:23:49.361Z,100690.19
2019-06-10T08:26:20.026Z,100692.28
2019-06-10T08:29:28.881Z,100682.55
2019-06-10T08:31:58.488Z,100693.39
2019-06-10T08:37:44.802Z,100692.10
2019-06-10T08:40:14.492Z,100691.03
2019-06-10T08:43:24.258Z,100685.36
2019-06-10T08:45:53.774Z,100685.27
2019-06-10T08:48:23.729Z,100707.86
2019-06-10T08:50:53.602Z,100707.70
2019-06-10T08:53:23.323Z,100714.22
2019-06-10T08:58:51.625Z,100716.73
2019-06-10T09:04:35.487Z,100711.48
2019-06-10T09:07:04.832Z,100704.14
2019-06-10T09:13:09.221Z,100707.50
2019-06-10T09:15:40.664Z,100702.86
2019-06-10T09:18:13.966Z,100700.21
2019-06-10T09:20:45.909Z,100708.53
2019-06-10T09:23:21.921Z,100717.19
2019-06-10T09:25:50.500Z,100720.25
2019-06-10T09:28:17.329Z,100721.59
2019-06-10T09:33:46.619Z,100725.53
2019-06-10T09:36:13.674Z,100719.03
2019-06-10T09:38:47.323Z,100740.80
2019-06-10T09:42:01.484Z,100722.92
2019-06-10T09:54:05.623Z,100756.41
2019-06-10T09:59:46.370Z,100751.50
2019-06-10T10:02:13.252Z,100753.45
2019-06-10T10:05:23.386Z,100753.79
2019-06-10T10:07:57.238Z,100764.05
2019-06-10T10:11:04.593Z,100761.14
2019-06-10T10:16:53.764Z,100760.25
2019-06-10T10:19:38.978Z,100770.28
2019-06-10T10:22:10.990Z,100763.09
2019-06-10T10:24:42.483Z,100759.69
2019-06-10T10:27:13.512Z,100766.95
2019-06-10T10:29:45.271Z,100765.44
2019-06-10T10:41:23.999Z,100776.82
2019-06-10T10:43:57.806Z,100773.77
2019-06-10T10:46:26.690Z,100790.28
2019-06-10T10:48:56.620Z,100787.43
2019-06-10T11:03:42.864Z,100822.55
2019-06-10T11:06:12.877Z,100825.82
2019-06-10T11:08:45.289Z,100835.16
2019-06-10T11:17:33.645Z,100843.13
2019-06-10T11:20:03.831Z,100840.17
2019-06-10T11:22:33.353Z,100857.34
2019-06-10T11:27:38.667Z,100852.44
2019-06-10T11:33:04.789Z,100833.11
2019-06-10T11:35:34.669Z,100868.20
2019-06-10T11:38:43.552Z,100869.91
2019-06-10T11:41:13.876Z,100868.66
2019-06-10T11:43:43.354Z,100868.47
2019-06-10T11:46:14.875Z,100859.39
2019-06-10T11:48:44.950Z,100875.95
2019-06-10T11:51:14.621Z,100884.00
2019-06-10T11:53:44.518Z,100867.53
2019-06-10T11:56:14.165Z,100885.47
2019-06-10T11:58:43.688Z,100857.91
2019-06-10T12:01:13.519Z,100870.18
2019-06-10T12:03:45.121Z,100874.52
2019-06-10T12:06:14.725Z,100866.85
2019-06-10T12:12:02.288Z,100883.63
2019-06-10T12:14:33.184Z,100879.44
2019-06-10T12:17:21.886Z,100878.69
2019-06-10T12:22:37.120Z,100881.63
2019-06-10T12:25:32.421Z,100880.16
2019-06-10T12:30:57.319Z,100875.70
2019-06-10T12:33:25.480Z,100864.00
2019-06-10T12:35:59.474Z,100876.70
2019-06-10T12:38:26.860Z,100900.67
2019-06-10T12:44:05.284Z,100894.77
2019-06-10T12:49:43.829Z,100896.03
2019-06-10T12:52:13.963Z,100900.26
2019-06-10T12:54:43.474Z,100900.89
2019-06-10T12:57:16.485Z,100917.17
2019-06-10T13:03:03.793Z,100924.22
2019-06-10T13:05:33.262Z,100926.59
2019-06-10T13:08:43.104Z,100918.69
2019-06-10T13:11:14.923Z,100929.91
2019-06-10T13:13:45.369Z,100925.42
2019-06-10T13:16:18.543Z,100924.95
2019-06-10T13:18:48.060Z,100920.38
2019-06-10T13:21:57.333Z,100926.88
2019-06-10T13:24:26.817Z,100935.80
2019-06-10T13:26:56.602Z,100941.28
2019-06-10T13:30:05.455Z,100946.76
2019-06-10T13:35:32.186Z,100957.87
2019-06-10T13:38:04.147Z,100963.87
2019-06-10T13:41:05.729Z,100958.98
2019-06-10T13:43:35.724Z,100964.38
2019-06-10T13:46:07.365Z,100978.07
2019-06-10T13:48:37.019Z,100964.69
2019-06-10T13:51:10.218Z,100972.53
2019-06-10T13:53:37.601Z,100972.78
2019-06-10T13:56:32.393Z,100989.59
2019-06-10T14:01:53.391Z,100998.16
2019-06-10T14:04:25.727Z,100993.80
2019-06-10T14:06:57.267Z,100991.51
2019-06-10T14:12:01.898Z,101001.20
2019-06-10T14:14:33.312Z,101008.14
2019-06-10T14:17:03.987Z,101014.98
2019-06-10T14:19:34.794Z,101009.19
2019-06-10T14:28:34.843Z,101020.28
2019-06-10T14:30:46.541Z,101018.05
2019-06-10T14:33:16.724Z,101023.97
2019-06-10T14:35:46.170Z,101028.98
2019-06-10T14:38:15.950Z,101033.17
2019-06-10T14:40:45.432Z,101040.22
2019-06-10T14:43:16.246Z,101044.93
2019-06-10T14:45:46.152Z,101048.91
2019-06-10T14:48:17.517Z,101049.97
2019-06-10T14:50:46.662Z,101056.97
2019-06-10T14:53:16.957Z,101065.47
2019-06-10T14:55:47.443Z,101067.78
2019-06-10T14:58:19.244Z,101065.81
2019-06-10T15:00:49.258Z,101071.84
2019-06-10T15:03:20.030Z,101072.65
2019-06-10T15:05:52.673Z,101076.17
2019-06-10T15:08:23.124Z,101070.80
2019-06-10T15:10:53.779Z,101081.70
2019-06-10T15:13:23.796Z,101084.49
2019-06-10T15:15:53.501Z,101079.28
2019-06-10T15:18:23.908Z,101085.53
2019-06-10T15:20:53.726Z,101014.09
2019-06-10T15:23:23.783Z,101088.17
2019-06-10T15:25:56.890Z,100992.77
2019-06-10T15:28:24.269Z,101095.84
2019-06-10T15:30:53.799Z,101097.67
2019-06-10T15:33:23.981Z,101110.64
2019-06-10T15:35:54.500Z,101101.98
2019-06-10T15:38:24.031Z,101098.66
2019-06-10T15:41:32.715Z,101109.23
2019-06-10T15:47:03.953Z,101114.38
2019-06-10T15:49:33.426Z,101115.50
2019-06-10T15:52:03.355Z,101119.50
2019-06-10T15:54:33.474Z,101121.84
2019-06-10T15:57:45.644Z,101116.33
2019-06-10T16:03:08.909Z,101124.77
2019-06-10T16:05:38.372Z,101125.67
2019-06-10T16:08:07.863Z,101127.27
2019-06-10T16:11:18.926Z,101134.34
2019-06-10T16:13:49.190Z,101146.11
2019-06-10T16:16:18.989Z,101152.51
2019-06-10T16:18:49.816Z,101153.67
2019-06-10T16:21:20.405Z,101158.39
2019-06-10T16:23:53.150Z,101164.18
2019-06-10T16:26:25.238Z,101162.63
2019-06-10T16:28:52.634Z,101162.95
2019-06-10T16:31:25.606Z,101169.30
2019-06-10T16:33:53.676Z,101176.97
2019-06-10T16:36:25.887Z,101176.77
2019-06-10T16:38:54.638Z,101188.32
2019-06-10T16:42:03.421Z,101189.73
2019-06-10T16:44:33.144Z,101192.41
2019-06-10T16:47:05.014Z,101183.39
2019-06-10T16:49:34.483Z,101192.66
2019-06-10T16:52:25.639Z,101188.88
2019-06-10T16:54:54.805Z,101193.52
2019-06-10T16:57:25.585Z,101200.63
2019-06-10T16:59:55.471Z,101199.44
2019-06-10T17:02:25.457Z,101206.67
2019-06-10T17:04:58.393Z,101205.58
2019-06-10T17:07:29.074Z,101217.45
2019-06-10T17:09:58.641Z,101217.38
2019-06-10T17:15:42.839Z,101230.03
2019-06-10T17:18:13.068Z,101228.02
2019-06-10T17:21:04.079Z,101231.52
2019-06-10T17:23:36.615Z,101240.45
2019-06-10T17:26:05.576Z,101236.02
2019-06-10T17:28:37.008Z,101227.53
2019-06-10T17:34:02.808Z,101253.23
2019-06-10T17:36:35.131Z,101253.95
2019-06-10T17:41:59.691Z,101267.26
2019-06-10T17:44:30.781Z,101261.34
2019-06-10T17:47:02.300Z,101276.20
2019-06-10T17:49:34.694Z,101275.45
2019-06-10T17:55:19.338Z,101283.22
2019-06-10T17:57:49.359Z,101286.78
2019-06-10T18:03:14.543Z,101297.70
2019-06-10T18:11:35.821Z,101307.92
2019-06-10T18:17:06.678Z,101318.13
2019-06-10T18:19:37.483Z,101325.39
2019-06-10T18:22:07.740Z,101332.63
2019-06-10T18:24:37.208Z,101343.05
2019-06-10T18:27:06.759Z,101341.85
2019-06-10T18:29:37.312Z,101350.45
2019-06-10T18:32:06.838Z,101365.31
2019-06-10T18:34:38.012Z,101367.91
2019-06-10T18:37:07.891Z,101380.46
2019-06-10T18:39:37.377Z,101385.62
2019-06-10T18:42:06.898Z,101399.67
2019-06-10T18:44:37.530Z,101406.80
2019-06-10T18:47:07.353Z,101403.59
2019-06-10T18:49:37.539Z,101337.05
2019-06-10T18:52:07.110Z,101419.67
2019-06-10T18:55:15.945Z,101428.88
2019-06-10T19:03:37.575Z,101448.60
2019-06-10T19:06:06.492Z,101455.70
2019-06-10T19:11:50.504Z,101471.59
2019-06-10T19:14:20.109Z,101468.20
2019-06-10T19:17:30.394Z,101470.98
2019-06-10T19:20:03.757Z,101485.56
2019-06-10T19:22:34.069Z,101403.34
2019-06-10T19:25:06.357Z,101496.26
2019-06-10T19:27:36.878Z,101510.08
2019-06-10T19:30:07.477Z,101511.55
2019-06-10T19:32:38.315Z,101520.16
2019-06-10T19:35:09.015Z,101529.27
2019-06-10T19:38:17.967Z,101530.49
2019-06-10T19:43:40.663Z,101535.13
2019-06-10T19:46:12.849Z,101536.58
2019-06-10T19:51:37.396Z,101544.59
2019-06-10T19:54:47.248Z,101550.53
2019-06-10T19:57:17.848Z,101554.84
2019-06-10T20:00:26.541Z,101563.06
2019-06-10T20:06:06.001Z,101569.36
2019-06-10T20:08:56.300Z,101574.94
2019-06-10T20:12:05.232Z,101582.05
2019-06-10T20:17:30.125Z,101592.95
2019-06-10T20:23:08.964Z,101601.38
2019-06-10T20:25:41.020Z,101606.37
2019-06-10T20:28:10.504Z,101608.28
2019-06-10T20:30:43.339Z,101613.23
2019-06-10T20:38:57.604Z,101611.98
2019-06-10T20:44:36.094Z,101629.28
2019-06-10T20:47:05.845Z,101630.94
2019-06-10T20:49:35.203Z,101637.84
2019-06-10T20:52:11.141Z,101644.50
2019-06-10T20:54:36.433Z,101646.80
2019-06-10T20:57:05.843Z,101652.61
2019-06-10T20:59:35.575Z,101658.28
2019-06-10T21:02:05.110Z,101675.90
2019-06-10T21:04:35.465Z,101683.56
2019-06-10T21:07:05.094Z,101691.50
2019-06-10T21:09:35.035Z,101689.34
2019-06-10T21:12:04.494Z,101700.67
2019-06-10T21:14:33.946Z,101715.39
2019-06-10T21:17:03.652Z,101718.44
2019-06-10T21:20:12.665Z,101724.80
2019-06-10T21:22:44.288Z,101730.20
2019-06-10T21:25:14.627Z,101733.98
2019-06-10T21:27:46.315Z,101748.03
2019-06-10T21:30:15.917Z,101747.81
2019-06-10T21:32:47.013Z,101756.64
2019-06-10T21:35:17.462Z,101756.52
2019-06-10T21:43:41.322Z,101776.45
2019-06-10T21:49:18.527Z,101788.04
2019-06-10T21:51:49.945Z,101793.55
2019-06-10T21:54:19.571Z,101792.61
2019-06-10T21:56:49.049Z,101798.88
2019-06-10T21:59:18.492Z,101799.08
2019-06-10T22:01:49.116Z,101806.75
2019-06-10T22:04:19.445Z,101804.19
2019-06-10T22:09:45.624Z,101822.96
2019-06-10T22:12:28.013Z,101824.08
2019-06-10T22:17:55.924Z,101831.66
2019-06-10T22:23:27.554Z,101832.80
2019-06-10T22:26:36.161Z,101842.26
2019-06-10T22:29:45.124Z,101842.47
2019-06-10T22:32:16.957Z,101855.05
2019-06-10T22:35:25.635Z,101858.00
2019-06-10T22:40:57.089Z,101874.21
2019-06-10T22:43:39.173Z,101878.45
2019-06-10T22:46:22.973Z,101885.38
2019-06-10T22:51:56.475Z,101892.48
2019-06-10T22:54:24.946Z,101886.61
2019-06-10T22:56:56.771Z,101894.28
2019-06-10T22:59:25.425Z,101899.97
2019-06-10T23:01:56.536Z,101903.38
2019-06-10T23:04:26.371Z,101912.38
2019-06-10T23:07:35.308Z,101913.61
2019-06-10T23:13:19.621Z,101922.05
2019-06-10T23:16:28.258Z,101922.05
2019-06-10T23:22:03.670Z,101930.09
2019-06-10T23:27:13.192Z,101947.30
2019-06-10T23:29:43.948Z,101947.98
2019-06-10T23:32:13.330Z,101959.32
2019-06-10T23:34:42.771Z,101952.91
2019-06-10T23:37:12.552Z,101956.73
2019-06-10T23:39:43.725Z,101967.34
2019-06-10T23:45:04.903Z,101963.28
2019-06-10T23:50:34.833Z,101967.65
2019-06-10T23:53:23.435Z,101970.56
2019-06-10T23:55:54.638Z,101978.84
2019-06-10T23:58:25.337Z,101984.42
